createdAt,value
2023-02-15T00:00:15.249Z,0.8
2023-02-15T00:10:16.788Z,0.6
2023-02-15T00:30:19.737Z,0.5
2023-02-15T00:40:20.795Z,0.5
2023-02-15T00:50:23.745Z,0.3
2023-02-15T01:00:23.677Z,0.2
2023-02-15T01:10:25.031Z,0.1
2023-02-15T01:20:26.965Z,0
2023-02-15T01:30:28.707Z,0
2023-02-15T01:40:29.874Z,0.1
2023-02-15T01:50:30.945Z,0
2023-02-15T02:00:32.491Z,-0.1
2023-02-15T02:10:34.026Z,-0.1
2023-02-15T02:20:35.618Z,-0.2
2023-02-15T02:40:39.590Z,-0.5
2023-02-15T02:50:40.915Z,-0.6
2023-02-15T03:00:42.543Z,-0.7
2023-02-15T03:10:43.793Z,-0.8
2023-02-15T03:20:45.462Z,-0.6
2023-02-15T03:30:47.194Z,-0.7
2023-02-15T03:40:49.083Z,-0.8
2023-02-15T03:50:50.552Z,-1
2023-02-15T04:00:52.149Z,-1
2023-02-15T04:20:54.743Z,-1
2023-02-15T04:30:56.471Z,-1.2
2023-02-15T04:40:57.568Z,-1.2
2023-02-15T05:01:01.066Z,-1.2
2023-02-15T05:21:03.757Z,-1.4
2023-02-15T05:51:08.770Z,-1.5
2023-02-15T06:11:11.495Z,-1.6
2023-02-15T06:31:14.689Z,-1.6
2023-02-15T07:01:18.314Z,-1.6
2023-02-15T07:11:20.056Z,-1.6
2023-02-15T07:21:21.927Z,-1.4
2023-02-15T07:41:24.610Z,-0.9
2023-02-15T08:01:27.478Z,0.7
2023-02-15T08:11:29.244Z,1
2023-02-15T08:41:33.452Z,3.2
2023-02-15T08:51:35.324Z,3.9
2023-02-15T09:01:36.783Z,4.4
2023-02-15T09:11:38.683Z,5.2
2023-02-15T09:21:40.391Z,5.7
2023-02-15T09:31:41.557Z,5.8
2023-02-15T09:41:43.219Z,6.1
2023-02-15T09:51:44.619Z,6.5
2023-02-15T10:01:46.211Z,6.9
2023-02-15T10:11:48.108Z,7.1
2023-02-15T10:21:49.606Z,7.7
2023-02-15T10:44:30.618Z,8.2
2023-02-15T10:52:02.394Z,8.8
2023-02-15T11:02:03.553Z,8.8
2023-02-15T11:12:05.342Z,9.7
2023-02-15T11:22:07.450Z,10.2
2023-02-15T11:32:09.088Z,10.5
2023-02-15T11:42:10.280Z,11.2
2023-02-15T11:52:11.606Z,11.6
2023-02-15T12:02:13.366Z,12.1
2023-02-15T12:12:15.229Z,12.7
2023-02-15T12:22:17.201Z,13
2023-02-15T12:32:18.793Z,13.1
2023-02-15T12:42:20.436Z,13.5
2023-02-15T12:52:21.583Z,13.5
2023-02-15T13:02:22.750Z,13.7
2023-02-15T13:12:24.453Z,13.7
2023-02-15T13:22:26.148Z,14
2023-02-15T13:32:27.646Z,13.9
2023-02-15T13:42:29.003Z,13.9
2023-02-15T13:52:30.181Z,14.1
2023-02-15T14:02:31.629Z,14.3
2023-02-15T14:12:32.965Z,14.4
2023-02-15T14:22:34.510Z,14.5
2023-02-15T14:32:36.177Z,14.5
2023-02-15T14:42:38.092Z,14.7
2023-02-15T14:52:39.838Z,14.3
2023-02-15T15:02:41.099Z,14
2023-02-15T15:12:43.063Z,13.8
2023-02-15T15:22:44.365Z,13.4
2023-02-15T15:32:46.373Z,13.3
2023-02-15T15:42:47.720Z,13.1
2023-02-15T15:52:49.078Z,13.2
2023-02-15T16:02:50.783Z,12.6
2023-02-15T16:12:52.576Z,12.1
2023-02-15T16:22:53.602Z,11.5
2023-02-15T16:32:54.830Z,10.9
2023-02-15T16:42:56.377Z,10.5
2023-02-15T16:52:57.838Z,9.7
2023-02-15T17:02:59.545Z,9.1
2023-02-15T17:13:01.051Z,8.7
2023-02-15T17:23:02.105Z,8.5
2023-02-15T17:33:03.663Z,8.3
2023-02-15T17:43:04.771Z,7.9
2023-02-15T17:53:06.009Z,7.6
2023-02-15T18:03:07.386Z,7.5
2023-02-15T18:13:09.065Z,7.3
2023-02-15T18:23:10.588Z,7
2023-02-15T18:33:11.999Z,6.8
2023-02-15T18:43:13.626Z,6.8
2023-02-15T18:53:14.867Z,6.5
2023-02-15T19:13:17.386Z,6.7
2023-02-15T19:23:19.478Z,6.4
2023-02-15T19:33:20.958Z,6.3
2023-02-15T19:43:23.970Z,6.2
2023-02-15T19:53:23.454Z,6.1
2023-02-15T20:03:25.175Z,5.9
2023-02-15T20:13:27.219Z,5.8
2023-02-15T20:23:31.035Z,6.3
2023-02-15T20:33:30.957Z,6.4
2023-02-15T20:43:32.688Z,6.3
2023-02-15T20:53:34.343Z,5.9
2023-02-15T21:03:35.655Z,5.5
2023-02-15T21:13:37.208Z,5.3
2023-02-15T21:23:38.476Z,5.1
2023-02-15T21:33:40.458Z,4.8
2023-02-15T21:43:42.360Z,4.5
2023-02-15T21:53:43.880Z,4.2
2023-02-15T22:03:45.090Z,4
2023-02-15T22:13:46.473Z,4.1
2023-02-15T22:23:47.710Z,4.3
2023-02-15T22:33:48.820Z,4.9
2023-02-15T22:53:51.605Z,4.9
2023-02-15T23:13:54.551Z,4.6
2023-02-15T23:33:57.798Z,4.7
2023-02-15T23:54:00.347Z,4.3
